My Meet Scores
Molly Cibula, Flipstar Gymnastics Academy - MyMeetScores.com
Top100 | Top Teams | Upcoming Meets | Completed Meets | Latest | Add Scores | Help| Support | Bookmark and Share

Molly Cibula, Flipstar Gymnastics Academy
Personal Bests
LevelVault BarsBeamFloorAA
39.2258.900 8.8009.05035.250
48.4008.150 9.5009.10034.350
58.7007.300 8.1008.52532.625
68.9258.000 8.8509.15034.500
Meet Scores
Date Meet Team Session Level Division Vault Bars Beam Floor AA
2020-02-28 MEGA Spring Invite 2020 Flipstar Gymnastics Academy 2 6 Senior 8.350 15 8.000 19 8.550 19 8.975 13 33.875 17
2020-02-21 Kinetic Classic Flipstar Gymnastics Academy 01 6 Older 8.925 25T 7.575 47 8.850 41T 9.150 37* 34.500 45T
2020-02-07 IGI Chicago Style Meet Flipstar Gymnastics Academy 213 6 C 8.475 13 7.500 22 8.800 9T 9.050 13 33.825 17
2020-01-30 Circle of Stars Flipstar Gymnastics Center B09 6 Sr A 8.300 14 8.000 13 8.575 11T 8.800 11T 33.675 14
2020-01-24 Sand Dollar Invitational 2020 Flipstar Gymnastics Academy D06 6 Sr A 0.000 14 7.625 13 8.200 15 9.050 16T 33.225 17
2019-12-07 Home for the Holidays 2019 Flipstar Gymnastics Academy 6 6 Older 8.600 5T 7.200 8 8.000 8 8.575 8 32.375 8
2019-11-08 Illinois Judges Cup Flipstar Gymnastics Academy P3 5 All Ages 8.700 19T 7.300 38 8.100 31 8.525 24T 32.625 31
2019-03-22 Illinois Gymnastics State Championships Flipstar Gymnastics Academy 11 4 Sr D 8.400 23 7.100 26 9.500 4 8.950 18 33.950 23
2019-03-01 2019 MEGA Spring Invite Flipstar Gymnastics Academy All 4 All Ages 8.225 104 8.150 102T 8.950 55T 8.725 87T 34.050 93T
2019-02-23 Kinetic Classic 2019 Flipstar Gymnastics Academy 1 4 Older 7.400 42 7.900 42 9.000 16T 8.250 37T 32.550 41
2019-02-08 Midwest Twisters Harley Meet Womens Flipstar Gymnastics Academy T09 4 11 yrs.+ 8.350 8 6.950 10 8.850 4 8.550 6 32.700 9
2019-01-25 King Arthur Invitational Flipstar Gymnastics Academy 1 4 Sr C 8.400 8 7.500 17T 8.750 4T 8.825 9T 33.475 11T
2019-01-11 Circle of Stars Gymnastics Flipstar Gymnastics Academy C06 4 Senior A 8.250 15 7.850 12 9.075 8 8.775 12 33.950 11
2018-12-13 2018 Atlantis Crown Invitational Flipstar Gymnastics Academy 09 4 11+ yrs 8.150 14 7.900 14 9.200 2T 9.100 10 34.350 9
2018-12-07 Horton Invite Flipstar Gymnastics Academy 2 4 Sr A 8.000 21 8.000 23 8.900 8T 8.650 17 33.550 18
2018-02-23 Kinetic Classic Flipstar Gymnastics Academy 7 4 Older 7.850 74T 7.000 88 8.950 52T 8.675 60 32.475 87
2018-02-16 Big Classic Flipstar Gymnastics Academy 7B 4 Child D 7.575 12 7.800 12 9.000 6 8.625 12 33.000 12
2018-02-09 IGI Chicago Style Gymnastics Meet Flipstar Gymnastics Academy 2 4 211 Lake Shore Dr L4 C 7.600 18 7.150 21 9.075 11 8.325 17 32.150 20
2018-01-26 King Arthur Invitational Flipstar Gymnastics Academy 2 4 Sr A 7.500 16 6.500 16 8.700 9T 8.300 16 31.000 16
2018-01-19 Sand Dollar/ Whitlow Invitational Flipstar Gymnastics Academy E06 4 Sr A 8.250 13 6.350 15 9.225 8 7.825 14 31.650 14
2017-12-08 Horton Invite At IWU Shirk Center Flipstar Gymnastics Academy All 4 Jr B 7.900 22 7.050 22 8.600 10 8.000 23 31.550 22
2017-11-17 SCGA Classic Flipstar Gymnastics Academy 2 4 JrC 8.175 12 6.750 14 8.275 8 8.400 12 31.600 13
2017-11-10 Illinois NAWGJ Judges Cup 2017 Flipstar Gymnastics Academy G3 4 All Ages 7.600 64T 7.600 61T 8.000 60T 8.250 40T 31.450 60
2017-03-30 2017 Illinois Level 3 & 5 State Flipstar Gymnastics Academy All 3 Sr A 9.225 27T 8.900 24T 8.400 27T 8.725 23 35.250 27
2017-02-17 Big Classic Flipstar Gymnastics Academy B 3 Child D 9.000 24T 8.100 29 8.350 28T 9.050 19T 34.500 26
2017-02-10 IGI Chicago Style Gymnastics Meet Flipstar Gymnastics Academy 222L 3 JrC 8.875 21 8.550 21 8.300 20 8.250 22 33.975 22
2016-12-09 Horton Invitational Flipstar Gymnastics Academy 9 3 SrC 8.900 9 8.775 8 8.750 11 8.725 10 35.150 10
2016-11-11 2016 Illinois Judges Cup Flipstar Gymnastics Academy B5 3 9 Year Old 9.100 9 8.550 7T 8.800 2 8.550 7T 35.000 7
Get your scores on
a t-shirt, pin, or hoodie

www.lazysuits.com